createdAt,value
2024-02-24T00:00:21.873Z,22.59
2024-02-24T00:02:49.016Z,22.57
2024-02-24T00:05:16.412Z,22.63
2024-02-24T00:07:45.034Z,22.61
2024-02-24T00:10:13.277Z,22.61
2024-02-24T00:12:40.488Z,22.63
2024-02-24T00:15:09.386Z,22.61
2024-02-24T00:17:36.587Z,22.62
2024-02-24T00:20:04.490Z,22.61
2024-02-24T00:22:31.643Z,22.61
2024-02-24T00:25:00.167Z,22.60
2024-02-24T00:27:27.291Z,22.42
2024-02-24T00:29:54.482Z,22.54
2024-02-24T00:32:21.683Z,22.57
2024-02-24T00:34:48.928Z,22.55
2024-02-24T00:37:16.114Z,22.50
2024-02-24T00:39:43.253Z,22.47
2024-02-24T00:42:11.770Z,22.47
2024-02-24T00:44:39.065Z,22.49
2024-02-24T00:47:06.675Z,22.47
2024-02-24T00:49:33.847Z,22.45
2024-02-24T00:52:01.078Z,22.47
2024-02-24T00:54:28.215Z,22.48
2024-02-24T00:56:55.383Z,22.50
2024-02-24T00:59:24.074Z,22.52
2024-02-24T01:01:51.269Z,22.55
2024-02-24T01:04:19.263Z,22.49
2024-02-24T01:06:47.934Z,22.52
2024-02-24T01:09:15.091Z,22.51
2024-02-24T01:11:42.309Z,22.47
2024-02-24T01:14:09.664Z,22.53
2024-02-24T01:16:40.002Z,22.51
2024-02-24T01:19:07.337Z,22.50
2024-02-24T01:21:34.656Z,22.49
2024-02-24T01:24:01.807Z,22.48
2024-02-24T01:26:29.134Z,22.48
2024-02-24T01:28:56.380Z,22.46
2024-02-24T01:31:23.519Z,22.45
2024-02-24T01:33:52.091Z,22.41
2024-02-24T01:36:19.291Z,22.39
2024-02-24T01:38:46.485Z,22.39
2024-02-24T01:41:13.697Z,22.38
2024-02-24T01:43:40.952Z,22.36
2024-02-24T01:46:09.389Z,22.39
2024-02-24T01:48:36.903Z,22.37
2024-02-24T01:51:05.922Z,22.40
2024-02-24T01:53:33.162Z,22.30
2024-02-24T01:56:01.559Z,22.40
2024-02-24T01:58:30.096Z,22.45
2024-02-24T02:00:57.471Z,22.44
2024-02-24T02:03:34.522Z,22.39
2024-02-24T02:06:02.644Z,22.47
2024-02-24T02:08:31.313Z,22.45
2024-02-24T02:10:58.645Z,22.44
2024-02-24T02:13:25.925Z,22.43
2024-02-24T02:15:54.964Z,22.37
2024-02-24T02:18:22.529Z,22.40
2024-02-24T02:20:52.011Z,22.40
2024-02-24T02:23:21.037Z,22.40
2024-02-24T02:25:48.322Z,22.40
2024-02-24T02:28:15.642Z,22.38
2024-02-24T02:30:42.952Z,22.30
2024-02-24T02:33:10.706Z,22.31
2024-02-24T02:35:38.491Z,22.32
2024-02-24T02:38:05.973Z,22.29
2024-02-24T02:40:34.557Z,22.32
2024-02-24T02:43:01.788Z,22.32
2024-02-24T02:45:28.988Z,22.32
2024-02-24T02:47:56.403Z,22.33
2024-02-24T02:50:23.683Z,22.35
2024-02-24T02:52:50.898Z,22.33
2024-02-24T02:55:18.127Z,22.38
2024-02-24T02:57:46.686Z,22.37
2024-02-24T03:00:14.574Z,22.37
2024-02-24T03:02:41.919Z,22.39
2024-02-24T03:05:09.709Z,22.38
2024-02-24T03:07:36.926Z,22.36
2024-02-24T03:10:04.366Z,22.34
2024-02-24T03:12:31.702Z,22.27
2024-02-24T03:15:00.541Z,22.24
2024-02-24T03:17:27.970Z,22.21
2024-02-24T03:19:55.248Z,22.34
2024-02-24T03:22:22.627Z,22.30
2024-02-24T03:24:49.820Z,22.29
2024-02-24T03:27:16.997Z,22.23
2024-02-24T03:29:44.299Z,22.22
2024-02-24T03:32:12.987Z,22.23
2024-02-24T03:34:40.177Z,22.43
2024-02-24T03:37:07.370Z,22.53
2024-02-24T03:39:34.581Z,22.68
2024-02-24T03:42:01.746Z,22.88
2024-02-24T03:44:28.963Z,23.11
2024-02-24T03:46:56.332Z,23.44
2024-02-24T03:49:25.137Z,23.57
2024-02-24T03:51:52.410Z,23.55
2024-02-24T03:54:19.647Z,23.52
2024-02-24T03:56:46.850Z,23.50
2024-02-24T03:59:14.089Z,23.47
2024-02-24T04:01:41.364Z,23.35
2024-02-24T04:04:08.674Z,23.43
2024-02-24T04:06:37.357Z,23.40
2024-02-24T04:09:04.635Z,23.39
2024-02-24T04:11:32.018Z,23.35
2024-02-24T04:13:59.295Z,23.30
2024-02-24T04:16:26.657Z,23.24
2024-02-24T04:18:53.927Z,23.16
2024-02-24T04:21:21.129Z,23.06
2024-02-24T04:23:49.829Z,22.99
2024-02-24T04:26:17.140Z,23.02
2024-02-24T04:28:44.361Z,22.99
2024-02-24T04:31:11.550Z,23.00
2024-02-24T04:33:38.862Z,22.94
2024-02-24T04:36:07.083Z,22.92
2024-02-24T04:38:34.323Z,22.96
2024-02-24T04:41:02.902Z,22.99
2024-02-24T04:43:31.286Z,22.92
2024-02-24T04:45:59.507Z,22.90
2024-02-24T04:48:26.865Z,22.86
2024-02-24T04:50:54.158Z,22.88
2024-02-24T04:53:21.452Z,22.88
2024-02-24T04:55:48.640Z,22.87
2024-02-24T04:58:17.221Z,22.90
2024-02-24T05:00:44.444Z,22.88
2024-02-24T05:03:11.670Z,22.88
2024-02-24T05:05:38.912Z,22.74
2024-02-24T05:08:06.657Z,22.80
2024-02-24T05:10:33.977Z,22.74
2024-02-24T05:13:04.277Z,22.72
2024-02-24T05:15:34.662Z,22.70
2024-02-24T05:18:01.905Z,22.69
2024-02-24T05:20:29.520Z,22.60
2024-02-24T05:22:56.765Z,22.51
2024-02-24T05:25:23.907Z,22.57
2024-02-24T05:27:51.065Z,22.56
2024-02-24T05:30:18.250Z,22.55
2024-02-24T05:32:46.840Z,22.54
2024-02-24T05:35:14.251Z,22.52
2024-02-24T05:37:41.460Z,22.49
2024-02-24T05:40:09.633Z,22.53
2024-02-24T05:42:36.826Z,22.56
2024-02-24T05:45:04.659Z,22.57
2024-02-24T05:47:32.034Z,22.58
2024-02-24T05:50:00.593Z,22.58
2024-02-24T05:52:27.745Z,22.56
2024-02-24T05:54:55.277Z,22.53
2024-02-24T05:57:22.438Z,22.53
2024-02-24T05:59:49.712Z,22.55
2024-02-24T06:02:16.956Z,22.70
2024-02-24T06:04:44.109Z,22.80
2024-02-24T06:07:12.636Z,22.95
2024-02-24T06:09:39.813Z,23.13
2024-02-24T06:12:07.775Z,23.24
2024-02-24T06:14:35.245Z,23.33
2024-02-24T06:17:02.571Z,23.52
2024-02-24T06:19:29.712Z,23.54
2024-02-24T06:21:57.004Z,23.52
2024-02-24T06:24:25.544Z,23.47
2024-02-24T06:26:52.767Z,23.55
2024-02-24T06:29:20.039Z,23.67
2024-02-24T06:31:47.230Z,23.78
2024-02-24T06:34:15.347Z,23.88
2024-02-24T06:36:42.525Z,23.89
2024-02-24T06:39:09.677Z,23.91
2024-02-24T06:41:38.275Z,23.94
2024-02-24T06:44:05.669Z,24.08
2024-02-24T06:46:32.840Z,24.29
2024-02-24T06:49:00.164Z,24.40
2024-02-24T06:51:27.488Z,24.42
2024-02-24T06:53:54.716Z,24.33
2024-02-24T06:56:22.151Z,24.35
2024-02-24T06:58:50.820Z,24.25
2024-02-24T07:01:21.571Z,24.12
2024-02-24T07:03:48.752Z,24.12
2024-02-24T07:06:16.006Z,24.01
2024-02-24T07:08:43.257Z,23.95
2024-02-24T07:11:10.548Z,23.89
2024-02-24T07:13:39.081Z,23.84
2024-02-24T07:16:08.466Z,23.80
2024-02-24T07:18:37.497Z,23.71
2024-02-24T07:21:05.511Z,23.57
2024-02-24T07:23:32.755Z,23.66
2024-02-24T07:26:00.513Z,23.61
2024-02-24T07:28:28.045Z,23.61
2024-02-24T07:30:55.511Z,23.63
2024-02-24T07:33:24.172Z,23.63
2024-02-24T07:35:51.624Z,23.52
2024-02-24T07:38:18.810Z,23.54
2024-02-24T07:40:45.981Z,23.57
2024-02-24T07:43:13.280Z,23.61
2024-02-24T07:45:40.442Z,23.63
2024-02-24T07:48:08.291Z,23.58
2024-02-24T07:50:36.992Z,23.62
2024-02-24T07:53:04.472Z,23.56
2024-02-24T07:55:31.615Z,23.44
2024-02-24T07:57:58.964Z,23.56
2024-02-24T08:00:26.363Z,23.48
2024-02-24T08:02:53.707Z,23.49
2024-02-24T08:05:20.997Z,23.35
2024-02-24T08:07:49.590Z,23.42
2024-02-24T08:10:16.828Z,23.33
2024-02-24T08:12:44.102Z,23.34
2024-02-24T08:15:11.835Z,23.35
2024-02-24T08:17:39.170Z,23.33
2024-02-24T08:20:07.741Z,23.30
2024-02-24T08:22:34.863Z,23.30
2024-02-24T08:25:03.720Z,23.30
2024-02-24T08:27:30.908Z,23.28
2024-02-24T08:29:58.124Z,23.34
2024-02-24T08:32:25.439Z,23.35
2024-02-24T08:34:52.731Z,23.34
2024-02-24T08:37:19.929Z,23.36
2024-02-24T08:39:47.147Z,23.37
2024-02-24T08:42:15.715Z,23.32
2024-02-24T08:44:42.888Z,23.31
2024-02-24T08:47:10.460Z,23.31
2024-02-24T08:49:37.799Z,23.30
2024-02-24T08:52:05.654Z,23.28
2024-02-24T08:54:33.365Z,23.31
2024-02-24T08:57:00.671Z,23.26
2024-02-24T08:59:29.214Z,23.22
2024-02-24T09:01:56.474Z,23.23
2024-02-24T09:04:23.637Z,23.21
2024-02-24T09:06:50.951Z,23.24
2024-02-24T09:09:18.222Z,23.29
2024-02-24T09:11:45.578Z,23.25
2024-02-24T09:14:12.850Z,23.29
2024-02-24T09:16:41.371Z,23.30
2024-02-24T09:19:08.616Z,23.31
2024-02-24T09:21:35.781Z,23.37
2024-02-24T09:24:03.099Z,23.38
2024-02-24T09:26:30.407Z,23.36
2024-02-24T09:28:57.626Z,23.37
2024-02-24T09:31:24.773Z,23.37
2024-02-24T09:33:53.365Z,23.39
2024-02-24T09:36:20.587Z,23.45
2024-02-24T09:38:47.872Z,23.50
2024-02-24T09:41:17.803Z,23.49
2024-02-24T09:43:45.349Z,24.58
2024-02-24T09:46:12.810Z,25.20
2024-02-24T09:48:41.324Z,25.35
2024-02-24T09:51:10.031Z,25.34
2024-02-24T09:53:37.188Z,25.08
2024-02-24T09:56:05.335Z,24.82
2024-02-24T09:58:34.018Z,24.54
2024-02-24T10:01:01.222Z,24.52
2024-02-24T10:03:28.765Z,24.43
2024-02-24T10:05:56.132Z,24.42
2024-02-24T10:08:25.207Z,24.31
2024-02-24T10:10:52.446Z,24.25
2024-02-24T10:13:19.684Z,24.26
2024-02-24T10:15:46.840Z,24.18
2024-02-24T10:18:14.079Z,24.17
2024-02-24T10:20:41.371Z,24.15
2024-02-24T10:23:08.600Z,24.14
2024-02-24T10:25:37.156Z,24.09
2024-02-24T10:28:06.160Z,24.04
2024-02-24T10:30:33.728Z,23.99
2024-02-24T10:33:01.773Z,23.97
2024-02-24T10:35:29.635Z,23.98
2024-02-24T10:38:11.138Z,23.93
2024-02-24T10:40:48.879Z,23.91
2024-02-24T10:43:16.122Z,23.88
2024-02-24T10:45:43.512Z,23.91
2024-02-24T10:48:10.948Z,23.90
2024-02-24T10:50:38.428Z,23.83
2024-02-24T10:53:07.536Z,23.86
2024-02-24T10:55:37.521Z,23.88
2024-02-24T10:58:06.472Z,23.98
2024-02-24T11:00:34.042Z,23.94
2024-02-24T11:03:02.218Z,24.03
2024-02-24T11:05:29.686Z,23.85
2024-02-24T11:07:57.432Z,24.00
2024-02-24T11:10:33.282Z,23.96
2024-02-24T11:13:02.652Z,24.09
2024-02-24T11:15:31.302Z,23.95
2024-02-24T11:17:58.788Z,24.12
2024-02-24T11:20:54.209Z,24.18
2024-02-24T11:23:22.988Z,24.20
2024-02-24T11:26:10.614Z,24.20
2024-02-24T11:28:39.161Z,24.05
2024-02-24T11:31:08.400Z,24.15
2024-02-24T11:33:36.348Z,24.13
2024-02-24T11:36:05.453Z,24.06
2024-02-24T11:38:33.314Z,24.06
2024-02-24T11:41:04.202Z,24.02
2024-02-24T11:43:31.409Z,24.10
2024-02-24T11:45:58.758Z,24.07
2024-02-24T11:48:27.409Z,24.04
2024-02-24T11:50:55.497Z,24.01
2024-02-24T11:53:22.756Z,24.01
2024-02-24T11:55:50.090Z,23.98
2024-02-24T11:58:17.673Z,24.00
2024-02-24T12:00:44.935Z,23.97
2024-02-24T12:03:13.426Z,23.99
2024-02-24T12:05:42.286Z,23.98
2024-02-24T12:08:12.199Z,23.97
2024-02-24T12:10:40.521Z,24.08
2024-02-24T12:13:09.232Z,24.11
2024-02-24T12:15:39.490Z,24.11
2024-02-24T12:18:07.687Z,24.05
2024-02-24T12:20:36.949Z,24.12
2024-02-24T12:23:06.713Z,23.97
2024-02-24T12:25:34.555Z,24.15
2024-02-24T12:28:02.784Z,24.15
2024-02-24T12:30:35.389Z,24.14
2024-02-24T12:33:03.074Z,24.13
2024-02-24T12:35:30.839Z,24.13
2024-02-24T12:37:58.498Z,23.94
2024-02-24T12:40:31.294Z,24.08
2024-02-24T12:42:59.381Z,24.04
2024-02-24T12:45:26.991Z,23.96
2024-02-24T12:47:54.855Z,24.03
2024-02-24T12:50:23.767Z,24.03
2024-02-24T12:52:52.072Z,23.96
2024-02-24T12:55:19.632Z,24.02
2024-02-24T12:57:48.149Z,24.01
2024-02-24T13:00:15.561Z,24.02
2024-02-24T13:02:42.835Z,23.99
2024-02-24T13:05:10.182Z,24.02
2024-02-24T13:07:37.454Z,24.10
2024-02-24T13:10:05.254Z,24.13
2024-02-24T13:12:32.599Z,24.08
2024-02-24T13:15:01.228Z,24.18
2024-02-24T13:17:28.521Z,24.20
2024-02-24T13:19:55.789Z,24.22
2024-02-24T13:22:23.012Z,24.21
2024-02-24T13:24:50.214Z,24.24
2024-02-24T13:27:17.483Z,24.29
2024-02-24T13:29:44.812Z,24.29
2024-02-24T13:32:13.522Z,24.31
2024-02-24T13:34:40.801Z,24.35
2024-02-24T13:37:08.678Z,24.33
2024-02-24T13:39:35.954Z,24.22
2024-02-24T13:42:03.455Z,24.20
2024-02-24T13:44:30.684Z,24.24
2024-02-24T13:46:57.914Z,24.17
2024-02-24T13:49:26.608Z,24.20
2024-02-24T13:51:53.846Z,24.26
2024-02-24T13:54:21.055Z,24.20
2024-02-24T13:56:48.432Z,24.25
2024-02-24T13:59:15.748Z,24.21
2024-02-24T14:01:43.000Z,24.19
2024-02-24T14:04:10.300Z,24.22
2024-02-24T14:06:39.075Z,24.22
2024-02-24T14:09:06.459Z,24.18
2024-02-24T14:11:34.014Z,24.03
2024-02-24T14:14:01.259Z,24.11
2024-02-24T14:16:28.496Z,24.26
2024-02-24T14:18:55.941Z,24.55
2024-02-24T14:21:23.720Z,24.72
2024-02-24T14:23:52.738Z,24.84
2024-02-24T14:26:20.784Z,24.73
2024-02-24T14:28:52.902Z,24.72
2024-02-24T14:31:27.432Z,24.70
2024-02-24T14:33:54.712Z,24.54
2024-02-24T14:36:21.952Z,24.37
2024-02-24T14:38:49.197Z,24.70
2024-02-24T14:41:17.835Z,24.75
2024-02-24T14:43:45.021Z,24.69
2024-02-24T14:46:12.197Z,24.37
2024-02-24T14:48:39.468Z,24.23
2024-02-24T14:51:06.838Z,24.19
2024-02-24T14:53:34.161Z,24.06
2024-02-24T14:56:01.601Z,24.06
2024-02-24T14:58:30.180Z,24.06
2024-02-24T15:00:57.394Z,24.17
2024-02-24T15:03:24.723Z,24.31
2024-02-24T15:05:52.049Z,24.31
2024-02-24T15:08:19.321Z,24.23
2024-02-24T15:10:46.591Z,24.05
2024-02-24T15:13:13.951Z,24.05
2024-02-24T15:15:42.848Z,23.98
2024-02-24T15:18:10.231Z,23.97
2024-02-24T15:20:37.463Z,23.97
2024-02-24T15:23:04.791Z,23.91
2024-02-24T15:25:31.968Z,23.83
2024-02-24T15:27:59.299Z,23.81
2024-02-24T15:30:26.553Z,23.83
2024-02-24T15:32:55.271Z,23.75
2024-02-24T15:35:22.584Z,23.79
2024-02-24T15:37:49.898Z,23.64
2024-02-24T15:40:17.239Z,23.77
2024-02-24T15:42:44.426Z,23.82
2024-02-24T15:45:11.653Z,23.78
2024-02-24T15:47:39.552Z,23.82
2024-02-24T15:50:09.524Z,23.85
2024-02-24T15:52:36.772Z,23.83
2024-02-24T15:55:04.291Z,23.88
2024-02-24T15:57:31.463Z,23.85
2024-02-24T15:59:58.689Z,23.80
2024-02-24T16:02:25.922Z,23.81
2024-02-24T16:04:53.118Z,23.78
2024-02-24T16:07:21.663Z,23.82
2024-02-24T16:09:48.841Z,23.81
2024-02-24T16:12:16.179Z,23.68
2024-02-24T16:14:43.397Z,23.65
2024-02-24T16:17:10.585Z,23.67
2024-02-24T16:19:39.935Z,23.66
2024-02-24T16:22:08.028Z,23.67
2024-02-24T16:24:37.476Z,23.65
2024-02-24T16:27:05.060Z,23.67
2024-02-24T16:29:32.321Z,23.64
2024-02-24T16:31:59.512Z,23.54
2024-02-24T16:34:26.763Z,23.59
2024-02-24T16:36:54.017Z,23.65
2024-02-24T16:39:21.174Z,23.70
2024-02-24T16:41:49.823Z,23.69
2024-02-24T16:44:17.028Z,23.70
2024-02-24T16:46:44.641Z,23.72
2024-02-24T16:49:12.106Z,23.72
2024-02-24T16:51:39.433Z,23.71
2024-02-24T16:54:06.696Z,23.71
2024-02-24T16:56:34.031Z,23.70
2024-02-24T16:59:02.590Z,23.68
2024-02-24T17:01:29.749Z,23.64
2024-02-24T17:03:56.992Z,23.67
2024-02-24T17:06:24.548Z,23.63
2024-02-24T17:08:51.892Z,23.55
2024-02-24T17:11:19.589Z,23.53
2024-02-24T17:13:47.028Z,23.53
2024-02-24T17:16:15.536Z,23.48
2024-02-24T17:18:42.990Z,23.52
2024-02-24T17:21:10.398Z,23.51
2024-02-24T17:23:37.762Z,23.51
2024-02-24T17:26:05.254Z,23.52
2024-02-24T17:28:32.459Z,23.54
2024-02-24T17:30:59.800Z,23.57
2024-02-24T17:33:28.543Z,23.57
2024-02-24T17:35:55.926Z,23.59
2024-02-24T17:38:23.461Z,23.55
2024-02-24T17:40:50.796Z,23.58
2024-02-24T17:43:18.003Z,23.57
2024-02-24T17:45:45.196Z,23.55
2024-02-24T17:48:12.565Z,23.55
2024-02-24T17:50:41.202Z,23.52
2024-02-24T17:53:08.436Z,23.53
2024-02-24T17:55:35.622Z,23.52
2024-02-24T17:58:02.868Z,23.47
2024-02-24T18:00:30.103Z,23.41
2024-02-24T18:02:57.453Z,23.39
2024-02-24T18:05:24.935Z,23.32
2024-02-24T18:07:53.480Z,23.37
2024-02-24T18:10:20.699Z,23.38
2024-02-24T18:12:47.987Z,23.39
2024-02-24T18:15:15.579Z,23.29
2024-02-24T18:17:42.852Z,23.41
2024-02-24T18:20:10.998Z,23.43
2024-02-24T18:22:41.196Z,23.45
2024-02-24T18:25:11.294Z,23.45
2024-02-24T18:27:38.434Z,23.44
2024-02-24T18:30:07.116Z,23.45
2024-02-24T18:32:34.515Z,23.42
2024-02-24T18:35:01.779Z,23.43
2024-02-24T18:37:28.951Z,23.40
2024-02-24T18:39:56.186Z,23.41
2024-02-24T18:42:24.706Z,23.38
2024-02-24T18:44:51.940Z,23.33
2024-02-24T18:47:19.192Z,23.35
2024-02-24T18:49:46.435Z,23.27
2024-02-24T18:52:13.699Z,23.28
2024-02-24T18:54:40.859Z,23.27
2024-02-24T18:57:08.084Z,23.27
2024-02-24T18:59:36.645Z,23.27
2024-02-24T19:02:04.272Z,23.27
2024-02-24T19:04:31.417Z,23.26
2024-02-24T19:06:58.601Z,23.25
2024-02-24T19:09:25.802Z,23.25
2024-02-24T19:11:53.021Z,23.30
2024-02-24T19:14:20.266Z,23.31
2024-02-24T19:16:49.018Z,23.32
2024-02-24T19:19:16.483Z,23.32
2024-02-24T19:21:43.746Z,23.27
2024-02-24T19:24:12.451Z,23.30
2024-02-24T19:26:39.927Z,23.28
2024-02-24T19:29:07.161Z,23.29
2024-02-24T19:31:34.357Z,23.28
2024-02-24T19:34:03.133Z,23.27
2024-02-24T19:36:30.461Z,23.26
2024-02-24T19:39:10.485Z,23.18
2024-02-24T19:41:43.177Z,23.18
2024-02-24T19:44:10.428Z,23.16
2024-02-24T19:46:37.604Z,23.12
2024-02-24T19:49:09.475Z,23.13
2024-02-24T19:51:37.204Z,23.13
2024-02-24T19:54:04.489Z,23.14
2024-02-24T19:56:31.702Z,23.13
2024-02-24T19:58:58.937Z,23.13
2024-02-24T20:01:26.140Z,23.13
2024-02-24T20:03:53.407Z,23.17
2024-02-24T20:06:22.218Z,23.18
2024-02-24T20:08:49.539Z,23.20
2024-02-24T20:11:16.790Z,23.19
2024-02-24T20:13:44.022Z,23.18
2024-02-24T20:16:11.177Z,23.16
2024-02-24T20:18:38.469Z,23.16
2024-02-24T20:21:05.995Z,23.15
2024-02-24T20:23:34.571Z,23.15
2024-02-24T20:26:01.788Z,23.11
2024-02-24T20:28:29.160Z,23.13
2024-02-24T20:30:56.354Z,23.12
2024-02-24T20:33:23.749Z,23.07
2024-02-24T20:35:50.986Z,22.99
2024-02-24T20:38:18.226Z,23.02
2024-02-24T20:40:46.800Z,23.02
2024-02-24T20:43:14.227Z,23.03
2024-02-24T20:45:41.421Z,23.04
2024-02-24T20:48:08.810Z,23.02
2024-02-24T20:50:36.204Z,23.00
2024-02-24T20:53:03.654Z,23.03
2024-02-24T20:55:30.841Z,23.06
2024-02-24T20:57:59.436Z,23.05
2024-02-24T21:00:26.828Z,23.07
2024-02-24T21:02:54.090Z,23.06
2024-02-24T21:05:21.408Z,23.06
2024-02-24T21:07:48.643Z,23.06
2024-02-24T21:10:16.101Z,23.05
2024-02-24T21:12:43.316Z,23.04
2024-02-24T21:15:11.945Z,23.02
2024-02-24T21:17:39.217Z,23.01
2024-02-24T21:20:07.598Z,23.00
2024-02-24T21:22:34.903Z,22.99
2024-02-24T21:25:02.098Z,22.91
2024-02-24T21:27:29.309Z,22.88
2024-02-24T21:29:56.626Z,22.91
2024-02-24T21:32:25.258Z,22.89
2024-02-24T21:34:52.540Z,22.90
2024-02-24T21:37:19.728Z,22.88
2024-02-24T21:39:47.208Z,22.88
2024-02-24T21:42:14.558Z,22.87
2024-02-24T21:44:42.092Z,22.92
2024-02-24T21:47:09.552Z,22.93
2024-02-24T21:49:38.210Z,22.89
2024-02-24T21:52:08.526Z,22.94
2024-02-24T21:54:36.067Z,22.89
2024-02-24T21:57:03.758Z,22.94
2024-02-24T21:59:31.238Z,22.94
2024-02-24T22:01:58.678Z,22.93
2024-02-24T22:04:26.034Z,22.91
2024-02-24T22:06:54.701Z,22.91
2024-02-24T22:09:21.965Z,22.91
2024-02-24T22:11:49.258Z,22.89
2024-02-24T22:14:16.484Z,22.87
2024-02-24T22:16:43.672Z,22.81
2024-02-24T22:19:10.970Z,22.78
2024-02-24T22:21:38.231Z,22.77
2024-02-24T22:24:07.165Z,22.79
2024-02-24T22:26:34.512Z,22.74
2024-02-24T22:29:01.857Z,22.78
2024-02-24T22:31:29.130Z,22.76
2024-02-24T22:33:56.540Z,22.77
2024-02-24T22:36:24.193Z,22.78
2024-02-24T22:38:51.487Z,22.83
2024-02-24T22:41:22.297Z,22.82
2024-02-24T22:43:49.618Z,22.82
2024-02-24T22:46:17.714Z,22.81
2024-02-24T22:48:45.522Z,22.85
2024-02-24T22:51:12.838Z,22.80
2024-02-24T22:53:40.125Z,22.82
2024-02-24T22:56:08.598Z,22.80
2024-02-24T22:58:37.140Z,22.79
2024-02-24T23:01:04.689Z,22.77
2024-02-24T23:03:31.993Z,22.76
2024-02-24T23:05:59.504Z,22.78
2024-02-24T23:08:26.702Z,22.74
2024-02-24T23:10:53.992Z,22.73
2024-02-24T23:13:21.169Z,22.69
2024-02-24T23:15:49.788Z,22.68
2024-02-24T23:18:17.139Z,22.67
2024-02-24T23:20:44.829Z,22.67
2024-02-24T23:23:12.016Z,22.66
2024-02-24T23:25:39.206Z,22.68
2024-02-24T23:28:06.711Z,22.68
2024-02-24T23:30:33.918Z,22.65
2024-02-24T23:33:02.596Z,22.71
2024-02-24T23:35:29.830Z,22.70
2024-02-24T23:37:57.105Z,22.74
2024-02-24T23:40:24.303Z,22.74
2024-02-24T23:42:51.481Z,22.72
2024-02-24T23:45:18.649Z,22.73
2024-02-24T23:47:46.071Z,22.70
2024-02-24T23:50:14.733Z,22.70
2024-02-24T23:52:41.927Z,22.69
2024-02-24T23:55:09.366Z,22.63
2024-02-24T23:57:36.545Z,22.67
